createdAt,value
2018-01-06T00:01:46.902Z,3.59
2018-01-06T00:04:14.457Z,3.30
2018-01-06T00:06:41.884Z,3.43
2018-01-06T00:09:08.554Z,3.42
2018-01-06T00:11:36.127Z,3.51
2018-01-06T00:14:02.777Z,3.54
2018-01-06T00:16:30.222Z,3.51
2018-01-06T00:18:57.652Z,3.56
2018-01-06T00:21:24.482Z,3.61
2018-01-06T00:23:51.137Z,3.44
2018-01-06T00:26:17.793Z,3.36
2018-01-06T00:28:44.445Z,3.27
2018-01-06T00:31:11.114Z,3.42
2018-01-06T00:33:37.813Z,3.16
2018-01-06T00:36:04.481Z,3.17
2018-01-06T00:38:31.181Z,3.00
2018-01-06T00:40:57.843Z,2.98
2018-01-06T00:43:24.492Z,2.97
2018-01-06T00:45:51.179Z,3.04
2018-01-06T00:48:17.844Z,3.25
2018-01-06T00:50:44.769Z,3.16
2018-01-06T00:53:11.467Z,3.29
2018-01-06T00:55:38.125Z,3.21
2018-01-06T00:58:05.731Z,3.37
2018-01-06T01:00:32.921Z,3.08
2018-01-06T01:03:00.314Z,3.07
2018-01-06T01:05:27.712Z,3.04
2018-01-06T01:07:54.369Z,3.22
2018-01-06T01:10:21.080Z,3.28
2018-01-06T01:12:47.737Z,3.39
2018-01-06T01:15:14.400Z,3.27
2018-01-06T01:17:41.107Z,3.36
2018-01-06T01:20:07.760Z,3.50
2018-01-06T01:22:34.418Z,3.22
2018-01-06T01:25:01.105Z,3.21
2018-01-06T01:27:27.728Z,3.40
2018-01-06T01:29:55.114Z,3.26
2018-01-06T01:32:22.551Z,3.00
2018-01-06T01:34:49.240Z,3.16
2018-01-06T01:37:15.936Z,3.23
2018-01-06T01:39:42.603Z,3.25
2018-01-06T01:42:10.020Z,3.40
2018-01-06T01:44:37.665Z,3.39
2018-01-06T01:47:04.337Z,3.40
2018-01-06T01:49:31.017Z,3.47
2018-01-06T01:51:58.401Z,3.50
2018-01-06T01:54:25.036Z,3.69
2018-01-06T01:56:51.702Z,3.72
2018-01-06T01:59:18.343Z,3.47
2018-01-06T02:01:45.009Z,3.72
2018-01-06T02:04:11.668Z,3.88
2018-01-06T02:06:38.318Z,4.00
2018-01-06T02:09:04.997Z,4.10
2018-01-06T02:11:31.687Z,4.14
2018-01-06T02:13:58.354Z,4.12
2018-01-06T02:16:25.733Z,3.82
2018-01-06T02:18:52.404Z,3.85
2018-01-06T02:21:19.071Z,3.86
2018-01-06T02:23:45.732Z,3.82
2018-01-06T02:26:13.033Z,3.98
2018-01-06T02:28:39.741Z,4.01
2018-01-06T02:31:07.965Z,3.98
2018-01-06T02:33:35.431Z,3.72
2018-01-06T02:36:03.072Z,3.44
2018-01-06T02:38:29.811Z,3.49
2018-01-06T02:40:56.445Z,3.73
2018-01-06T02:43:23.904Z,3.80
2018-01-06T02:45:51.299Z,3.41
2018-01-06T02:48:18.904Z,3.47
2018-01-06T02:50:45.555Z,3.57
2018-01-06T02:53:12.210Z,3.53
2018-01-06T02:55:38.909Z,3.43
2018-01-06T02:58:05.598Z,3.65
2018-01-06T03:00:33.256Z,3.78
2018-01-06T03:03:00.641Z,3.71
2018-01-06T03:05:27.310Z,3.50
2018-01-06T03:07:53.967Z,3.64
2018-01-06T03:10:20.639Z,3.71
2018-01-06T03:12:48.051Z,3.72
2018-01-06T03:15:14.703Z,3.91
2018-01-06T03:17:41.352Z,3.67
2018-01-06T03:20:08.005Z,3.87
2018-01-06T03:22:34.651Z,3.96
2018-01-06T03:25:01.324Z,4.00
2018-01-06T03:27:28.737Z,4.02
2018-01-06T03:29:55.422Z,4.17
2018-01-06T03:32:22.873Z,4.07
2018-01-06T03:34:50.270Z,3.83
2018-01-06T03:37:16.945Z,4.00
2018-01-06T03:39:43.584Z,3.93
2018-01-06T03:42:10.266Z,4.02
2018-01-06T03:44:36.955Z,3.85
2018-01-06T03:47:03.601Z,3.77
2018-01-06T03:49:30.255Z,3.82
2018-01-06T03:51:56.939Z,3.72
2018-01-06T03:54:24.353Z,3.91
2018-01-06T03:56:51.029Z,3.74
2018-01-06T03:59:17.696Z,3.83
2018-01-06T04:01:44.324Z,3.65
2018-01-06T04:04:11.728Z,3.70
2018-01-06T04:06:38.412Z,3.65
2018-01-06T04:09:05.103Z,3.63
2018-01-06T04:11:31.791Z,3.76
2018-01-06T04:13:58.478Z,3.62
2018-01-06T04:16:25.145Z,3.27
2018-01-06T04:18:51.800Z,3.46
2018-01-06T04:21:18.480Z,3.43
2018-01-06T04:23:45.905Z,3.53
2018-01-06T04:26:12.553Z,3.36
2018-01-06T04:28:39.211Z,3.37
2018-01-06T04:31:05.868Z,3.34
2018-01-06T04:33:33.311Z,3.52
2018-01-06T04:35:59.988Z,3.16
2018-01-06T04:38:27.384Z,3.12
2018-01-06T04:40:54.055Z,3.20
2018-01-06T04:43:20.764Z,3.32
2018-01-06T04:45:47.437Z,3.23
2018-01-06T04:48:14.101Z,3.15
2018-01-06T04:50:41.511Z,3.12
2018-01-06T04:53:08.139Z,3.18
2018-01-06T04:55:34.782Z,3.24
2018-01-06T04:58:01.450Z,3.36
2018-01-06T05:00:28.098Z,3.32
2018-01-06T05:02:54.754Z,3.17
2018-01-06T05:05:21.427Z,3.19
2018-01-06T05:07:48.809Z,3.26
2018-01-06T05:10:15.455Z,3.32
2018-01-06T05:12:42.076Z,3.04
2018-01-06T05:15:08.798Z,3.07
2018-01-06T05:17:35.438Z,3.22
2018-01-06T05:20:02.141Z,3.09
2018-01-06T05:22:28.822Z,3.10
2018-01-06T05:24:55.462Z,2.79
2018-01-06T05:27:22.158Z,2.78
2018-01-06T05:29:49.173Z,2.85
2018-01-06T05:32:16.557Z,2.70
2018-01-06T05:34:43.218Z,2.70
2018-01-06T05:37:09.927Z,2.74
2018-01-06T05:39:36.576Z,2.78
2018-01-06T05:42:04.168Z,2.88
2018-01-06T05:44:31.001Z,2.76
2018-01-06T05:46:59.314Z,2.74
2018-01-06T05:49:25.997Z,2.87
2018-01-06T05:51:53.430Z,2.96
2018-01-06T05:54:20.082Z,3.05
2018-01-06T05:56:46.732Z,3.01
2018-01-06T05:59:14.163Z,2.86
2018-01-06T06:01:40.826Z,2.93
2018-01-06T06:04:07.495Z,2.83
2018-01-06T06:06:34.173Z,2.82
2018-01-06T06:09:00.818Z,3.02
2018-01-06T06:11:27.493Z,2.65
2018-01-06T06:13:54.174Z,2.70
2018-01-06T06:16:20.820Z,2.99
2018-01-06T06:18:47.490Z,2.63
2018-01-06T06:21:14.269Z,2.76
2018-01-06T06:23:40.948Z,2.61
2018-01-06T06:26:07.577Z,2.47
2018-01-06T06:28:35.009Z,2.75
2018-01-06T06:31:01.685Z,2.99
2018-01-06T06:33:28.337Z,3.07
2018-01-06T06:35:54.996Z,3.12
2018-01-06T06:38:21.677Z,3.03
2018-01-06T06:40:48.448Z,3.30
2018-01-06T06:43:15.882Z,3.29
2018-01-06T06:45:42.563Z,3.33
2018-01-06T06:48:09.205Z,3.35
2018-01-06T06:50:35.868Z,3.53
2018-01-06T06:53:02.569Z,3.57
2018-01-06T06:55:30.062Z,3.42
2018-01-06T06:57:56.706Z,3.42
2018-01-06T07:00:23.373Z,3.78
2018-01-06T07:02:50.049Z,4.38
2018-01-06T07:05:16.722Z,5.03
2018-01-06T07:07:43.392Z,6.06
2018-01-06T07:10:10.084Z,6.86
2018-01-06T07:12:37.553Z,7.80
2018-01-06T07:15:05.019Z,9.42
2018-01-06T07:17:32.454Z,11.50
2018-01-06T07:19:59.105Z,13.31
2018-01-06T07:22:25.802Z,14.40
2018-01-06T07:24:52.471Z,14.92
2018-01-06T07:27:19.145Z,14.72
2018-01-06T07:29:46.581Z,15.43
2018-01-06T07:32:13.226Z,15.22
2018-01-06T07:34:39.879Z,14.59
2018-01-06T07:37:06.593Z,13.64
2018-01-06T07:39:33.296Z,12.68
2018-01-06T07:42:00.712Z,12.14
2018-01-06T07:44:27.388Z,11.25
2018-01-06T07:46:54.860Z,10.32
2018-01-06T07:49:21.512Z,10.18
2018-01-06T07:51:48.162Z,10.22
2018-01-06T07:54:14.850Z,10.25
2018-01-06T07:56:41.511Z,10.15
2018-01-06T07:59:09.542Z,9.74
2018-01-06T08:01:36.263Z,8.47
2018-01-06T08:04:02.936Z,8.81
2018-01-06T08:06:29.667Z,8.58
2018-01-06T08:08:56.663Z,8.38
2018-01-06T08:11:30.207Z,8.50
2018-01-06T08:16:52.410Z,9.39
2018-01-06T08:19:20.314Z,9.56
2018-01-06T08:24:53.926Z,10.69
2018-01-06T08:27:24.559Z,10.81
2018-01-06T08:29:51.205Z,11.77
2018-01-06T08:32:19.181Z,12.10
2018-01-06T08:34:45.837Z,12.76
2018-01-06T08:37:13.255Z,12.77
2018-01-06T08:39:39.905Z,13.36
2018-01-06T08:42:06.547Z,14.00
2018-01-06T08:44:33.192Z,14.89
2018-01-06T08:46:59.903Z,15.11
2018-01-06T08:49:26.569Z,15.22
2018-01-06T08:51:53.245Z,15.66
2018-01-06T08:54:21.024Z,16.08
2018-01-06T08:56:48.410Z,17.02
2018-01-06T08:59:15.093Z,18.23
2018-01-06T09:01:41.762Z,18.88
2018-01-06T09:04:09.174Z,19.40
2018-01-06T09:06:35.868Z,20.00
2018-01-06T09:09:03.408Z,21.79
2018-01-06T09:11:30.066Z,23.00
2018-01-06T09:13:57.494Z,25.18
2018-01-06T09:16:24.157Z,26.19
2018-01-06T09:18:50.814Z,27.35
2018-01-06T09:21:18.199Z,27.90
2018-01-06T09:23:44.870Z,28.52
2018-01-06T09:26:11.554Z,27.42
2018-01-06T09:28:38.941Z,29.29
2018-01-06T09:31:05.601Z,29.89
2018-01-06T09:33:32.325Z,30.20
2018-01-06T09:35:58.968Z,30.21
2018-01-06T09:38:25.628Z,29.93
2018-01-06T09:40:52.388Z,30.99
2018-01-06T09:43:19.042Z,31.70
2018-01-06T09:45:45.753Z,31.60
2018-01-06T09:48:12.477Z,32.20
2018-01-06T09:50:39.880Z,32.03
2018-01-06T09:53:06.567Z,32.88
2018-01-06T09:55:34.789Z,34.12
2018-01-06T09:58:01.466Z,34.32
2018-01-06T10:00:28.898Z,34.54
2018-01-06T10:02:55.595Z,35.23
2018-01-06T10:05:23.026Z,35.17
2018-01-06T10:07:51.670Z,34.19
2018-01-06T10:10:18.406Z,34.87
2018-01-06T10:12:45.056Z,35.41
2018-01-06T10:15:11.799Z,35.52
2018-01-06T10:17:38.523Z,36.06
2018-01-06T10:20:06.906Z,34.96
2018-01-06T10:22:34.347Z,35.57
2018-01-06T10:25:01.187Z,36.25
2018-01-06T10:27:27.963Z,34.97
2018-01-06T10:29:55.395Z,35.41
2018-01-06T10:32:22.062Z,34.97
2018-01-06T10:34:49.470Z,33.72
2018-01-06T10:37:16.200Z,33.49
2018-01-06T10:39:42.900Z,32.80
2018-01-06T10:42:10.295Z,31.55
2018-01-06T10:44:37.192Z,30.53
2018-01-06T10:47:03.878Z,30.23
2018-01-06T10:49:30.521Z,28.91
2018-01-06T10:51:57.217Z,27.90
2018-01-06T10:54:23.874Z,28.39
2018-01-06T10:56:51.270Z,27.86
2018-01-06T10:59:17.962Z,29.03
2018-01-06T11:01:50.792Z,28.36
2018-01-06T11:04:17.434Z,28.79
2018-01-06T11:06:44.137Z,28.56
2018-01-06T11:09:11.595Z,29.22
2018-01-06T11:11:38.250Z,28.20
2018-01-06T11:14:05.730Z,27.20
2018-01-06T11:16:33.149Z,26.73
2018-01-06T11:18:59.823Z,26.03
2018-01-06T11:21:26.579Z,25.97
2018-01-06T11:23:53.891Z,25.46
2018-01-06T11:26:20.557Z,22.94
2018-01-06T11:28:47.283Z,23.10
2018-01-06T11:31:13.920Z,22.49
2018-01-06T11:33:40.588Z,22.94
2018-01-06T11:36:08.020Z,22.89
2018-01-06T11:38:34.670Z,22.33
2018-01-06T11:41:01.328Z,21.42
2018-01-06T11:43:28.122Z,21.00
2018-01-06T11:45:54.814Z,21.27
2018-01-06T11:48:21.491Z,21.90
2018-01-06T11:50:48.162Z,22.22
2018-01-06T11:53:14.831Z,21.67
2018-01-06T11:55:41.515Z,20.98
2018-01-06T11:58:08.918Z,20.84
2018-01-06T12:00:35.621Z,20.54
2018-01-06T12:03:02.302Z,20.72
2018-01-06T12:05:29.004Z,21.19
2018-01-06T12:07:55.657Z,23.37
2018-01-06T12:10:22.339Z,24.22
2018-01-06T12:12:49.430Z,22.90
2018-01-06T12:15:17.488Z,22.69
2018-01-06T12:17:44.207Z,21.25
2018-01-06T12:20:10.907Z,21.28
2018-01-06T12:22:37.550Z,21.79
2018-01-06T12:25:04.280Z,22.27
2018-01-06T12:27:31.681Z,22.13
2018-01-06T12:29:58.354Z,23.61
2018-01-06T12:32:25.044Z,23.89
2018-01-06T12:34:51.699Z,24.62
2018-01-06T12:37:18.347Z,24.74
2018-01-06T12:39:45.036Z,24.96
2018-01-06T12:42:12.440Z,24.99
2018-01-06T12:44:39.104Z,25.22
2018-01-06T12:47:05.792Z,25.39
2018-01-06T12:49:33.228Z,26.00
2018-01-06T12:51:59.870Z,25.54
2018-01-06T12:54:26.576Z,25.53
2018-01-06T12:56:53.248Z,25.99
2018-01-06T12:59:19.932Z,26.19
2018-01-06T13:01:47.338Z,24.87
2018-01-06T13:04:14.003Z,24.36
2018-01-06T13:06:40.684Z,23.69
2018-01-06T13:09:08.158Z,21.98
2018-01-06T13:11:34.822Z,21.97
2018-01-06T13:14:01.490Z,22.62
2018-01-06T13:16:28.191Z,23.14
2018-01-06T13:18:54.827Z,22.46
2018-01-06T13:21:21.482Z,21.69
2018-01-06T13:23:48.393Z,21.61
2018-01-06T13:26:16.764Z,20.75
2018-01-06T13:28:43.469Z,19.64
2018-01-06T13:31:10.112Z,19.79
2018-01-06T13:33:36.743Z,19.52
2018-01-06T13:36:03.468Z,19.19
2018-01-06T13:38:30.145Z,19.18
2018-01-06T13:40:56.848Z,19.04
2018-01-06T13:43:23.523Z,18.98
2018-01-06T13:45:50.189Z,18.89
2018-01-06T13:48:16.893Z,18.09
2018-01-06T13:50:43.554Z,18.11
2018-01-06T13:53:10.235Z,17.99
2018-01-06T13:55:37.997Z,18.03
2018-01-06T13:58:04.645Z,17.83
2018-01-06T14:00:31.343Z,17.53
2018-01-06T14:02:57.990Z,17.34
2018-01-06T14:05:24.677Z,17.23
2018-01-06T14:07:52.102Z,16.97
2018-01-06T14:10:18.757Z,16.66
2018-01-06T14:12:45.499Z,16.46
2018-01-06T14:15:12.186Z,16.49
2018-01-06T14:17:38.840Z,15.96
2018-01-06T14:20:05.580Z,16.01
2018-01-06T14:22:32.243Z,15.38
2018-01-06T14:24:58.892Z,14.88
2018-01-06T14:27:25.602Z,14.92
2018-01-06T14:29:52.271Z,14.66
2018-01-06T14:32:20.055Z,14.55
2018-01-06T14:34:47.461Z,14.34
2018-01-06T14:37:14.866Z,13.96
2018-01-06T14:39:41.583Z,13.74
2018-01-06T14:42:08.259Z,13.42
2018-01-06T14:44:35.148Z,13.59
2018-01-06T14:47:02.602Z,13.71
2018-01-06T14:49:29.310Z,13.35
2018-01-06T14:51:55.966Z,13.38
2018-01-06T14:54:22.651Z,13.53
2018-01-06T14:56:49.316Z,13.46
2018-01-06T14:59:16.041Z,13.29
2018-01-06T15:01:42.752Z,13.27
2018-01-06T15:04:09.411Z,13.18
2018-01-06T15:06:36.863Z,12.76
2018-01-06T15:09:03.645Z,12.49
2018-01-06T15:11:30.348Z,12.55
2018-01-06T15:13:57.018Z,12.39
2018-01-06T15:16:24.416Z,12.33
2018-01-06T15:18:51.160Z,11.98
2018-01-06T15:21:17.846Z,12.07
2018-01-06T15:23:45.449Z,11.66
2018-01-06T15:26:12.127Z,11.59
2018-01-06T15:28:39.725Z,11.30
2018-01-06T15:31:06.397Z,11.22
2018-01-06T15:33:33.056Z,10.98
2018-01-06T15:36:00.651Z,11.11
2018-01-06T15:38:27.325Z,10.85
2018-01-06T15:40:55.084Z,10.78
2018-01-06T15:43:22.471Z,10.53
2018-01-06T15:45:49.138Z,10.19
2018-01-06T15:48:15.880Z,10.35
2018-01-06T15:50:42.533Z,10.03
2018-01-06T15:53:09.215Z,9.88
2018-01-06T15:55:37.364Z,9.85
2018-01-06T15:58:05.049Z,9.62
2018-01-06T16:00:31.708Z,9.45
2018-01-06T16:02:59.144Z,9.45
2018-01-06T16:05:25.811Z,9.46
2018-01-06T16:07:53.189Z,9.41
2018-01-06T16:10:19.941Z,9.56
2018-01-06T16:12:46.662Z,9.55
2018-01-06T16:15:14.137Z,9.20
2018-01-06T16:17:40.783Z,9.38
2018-01-06T16:20:07.495Z,9.37
2018-01-06T16:22:34.153Z,9.41
2018-01-06T16:27:40.558Z,9.45
2018-01-06T16:30:08.310Z,9.22
2018-01-06T16:32:35.745Z,9.01
2018-01-06T16:35:02.463Z,9.08
2018-01-06T16:37:29.861Z,9.05
2018-01-06T16:39:57.273Z,8.81
2018-01-06T16:42:24.056Z,8.58
2018-01-06T16:44:51.480Z,8.59
2018-01-06T16:47:18.165Z,8.65
2018-01-06T16:49:44.845Z,8.47
2018-01-06T16:52:12.397Z,8.54
2018-01-06T16:54:39.806Z,8.44
2018-01-06T16:57:06.448Z,8.17
2018-01-06T16:59:33.117Z,8.05
2018-01-06T17:01:59.762Z,7.92
2018-01-06T17:04:26.458Z,7.85
2018-01-06T17:06:54.808Z,7.92
2018-01-06T17:09:24.519Z,8.09
2018-01-06T17:11:51.188Z,8.16
2018-01-06T17:14:17.860Z,7.78
2018-01-06T17:16:46.098Z,7.57
2018-01-06T17:19:15.258Z,7.44
2018-01-06T17:21:43.691Z,7.58
2018-01-06T17:24:10.461Z,7.58
2018-01-06T17:26:37.109Z,7.48
2018-01-06T17:29:03.853Z,7.32
2018-01-06T17:31:30.507Z,7.18
2018-01-06T17:33:57.150Z,7.27
2018-01-06T17:36:23.844Z,7.23
2018-01-06T17:38:50.493Z,7.02
2018-01-06T17:41:17.198Z,6.91
2018-01-06T17:43:57.989Z,7.02
2018-01-06T17:46:24.673Z,6.80
2018-01-06T17:48:53.186Z,7.00
2018-01-06T17:51:21.246Z,7.10
2018-01-06T17:53:49.843Z,7.15
2018-01-06T17:58:54.890Z,7.21
2018-01-06T18:01:23.184Z,7.34
2018-01-06T18:03:51.648Z,7.28
2018-01-06T18:06:20.269Z,7.23
2018-01-06T18:08:48.374Z,7.32
2018-01-06T18:11:16.411Z,7.15
2018-01-06T18:13:44.088Z,7.11
2018-01-06T18:16:11.898Z,7.72
2018-01-06T18:18:38.687Z,7.66
2018-01-06T18:21:05.436Z,7.95
2018-01-06T18:23:32.101Z,8.09
2018-01-06T18:25:59.508Z,8.19
2018-01-06T18:28:27.174Z,8.26
2018-01-06T18:30:53.927Z,8.38
2018-01-06T18:33:20.592Z,8.22
2018-01-06T18:35:47.261Z,8.16
2018-01-06T18:38:13.978Z,7.79
2018-01-06T18:40:40.637Z,7.62
2018-01-06T18:43:07.407Z,7.46
2018-01-06T18:45:34.063Z,7.28
2018-01-06T18:48:00.847Z,7.42
2018-01-06T18:50:27.732Z,7.46
2018-01-06T18:52:54.406Z,7.20
2018-01-06T18:55:21.146Z,7.42
2018-01-06T18:57:47.875Z,7.45
2018-01-06T19:00:14.553Z,7.56
2018-01-06T19:02:42.527Z,7.43
2018-01-06T19:05:09.715Z,7.53
2018-01-06T19:07:37.588Z,6.91
2018-01-06T19:10:05.705Z,6.91
2018-01-06T19:12:32.361Z,7.02
2018-01-06T19:14:59.068Z,7.11
2018-01-06T19:17:26.491Z,6.80
2018-01-06T19:19:53.174Z,7.01
2018-01-06T19:22:19.867Z,6.85
2018-01-06T19:24:46.546Z,6.80
2018-01-06T19:27:13.224Z,6.78
2018-01-06T19:29:39.882Z,6.60
2018-01-06T19:32:06.581Z,6.78
2018-01-06T19:34:33.979Z,6.53
2018-01-06T19:37:00.648Z,6.66
2018-01-06T19:39:27.451Z,6.82
2018-01-06T19:41:55.179Z,6.60
2018-01-06T19:44:21.919Z,6.63
2018-01-06T19:46:48.729Z,6.58
2018-01-06T19:49:15.439Z,6.38
2018-01-06T19:51:42.190Z,6.43
2018-01-06T19:54:09.685Z,6.66
2018-01-06T19:56:37.112Z,6.39
2018-01-06T19:59:03.770Z,6.54
2018-01-06T20:01:30.493Z,6.65
2018-01-06T20:03:57.122Z,6.41
2018-01-06T20:06:24.672Z,6.18
2018-01-06T20:08:51.389Z,6.04
2018-01-06T20:11:18.054Z,6.40
2018-01-06T20:13:44.690Z,6.27
2018-01-06T20:16:11.397Z,6.20
2018-01-06T20:18:38.042Z,6.50
2018-01-06T20:21:04.716Z,6.63
2018-01-06T20:23:31.445Z,6.32
2018-01-06T20:25:58.092Z,6.19
2018-01-06T20:28:24.751Z,6.40
2018-01-06T20:30:51.452Z,6.61
2018-01-06T20:33:18.123Z,6.37
2018-01-06T20:35:44.827Z,6.47
2018-01-06T20:38:11.591Z,6.26
2018-01-06T20:40:38.258Z,6.38
2018-01-06T20:43:05.122Z,6.43
2018-01-06T20:45:31.884Z,6.53
2018-01-06T20:47:59.311Z,6.44
2018-01-06T20:50:26.117Z,6.37
2018-01-06T20:52:53.061Z,6.16
2018-01-06T20:55:19.997Z,6.23
2018-01-06T20:57:46.887Z,6.03
2018-01-06T21:00:13.661Z,6.16
2018-01-06T21:02:40.478Z,6.31
2018-01-06T21:05:07.288Z,6.21
2018-01-06T21:07:34.030Z,6.23
2018-01-06T21:10:00.800Z,6.15
2018-01-06T21:12:27.543Z,6.15
2018-01-06T21:14:54.219Z,6.13
2018-01-06T21:17:20.882Z,6.35
2018-01-06T21:19:48.264Z,6.38
2018-01-06T21:22:14.946Z,6.22
2018-01-06T21:24:41.739Z,5.95
2018-01-06T21:27:09.159Z,5.89
2018-01-06T21:29:35.853Z,5.88
2018-01-06T21:32:02.540Z,5.90
2018-01-06T21:34:29.184Z,5.75
2018-01-06T21:36:55.911Z,5.84
2018-01-06T21:39:22.571Z,5.87
2018-01-06T21:41:49.249Z,5.93
2018-01-06T21:44:16.708Z,5.95
2018-01-06T21:46:44.129Z,6.02
2018-01-06T21:49:10.778Z,5.66
2018-01-06T21:51:37.454Z,5.53
2018-01-06T21:54:04.847Z,5.57
2018-01-06T21:56:31.509Z,5.54
2018-01-06T21:58:58.215Z,5.76
2018-01-06T22:01:24.847Z,5.71
2018-01-06T22:03:52.273Z,5.62
2018-01-06T22:06:18.948Z,5.72
2018-01-06T22:08:46.382Z,5.67
2018-01-06T22:11:13.036Z,5.51
2018-01-06T22:13:39.705Z,5.64
2018-01-06T22:16:06.400Z,5.57
2018-01-06T22:18:33.076Z,5.49
2018-01-06T22:21:00.525Z,5.42
2018-01-06T22:23:27.202Z,5.69
2018-01-06T22:25:53.925Z,5.64
2018-01-06T22:28:21.326Z,5.56
2018-01-06T22:30:47.962Z,5.75
2018-01-06T22:33:14.622Z,5.82
2018-01-06T22:35:41.289Z,5.89
2018-01-06T22:38:07.967Z,5.75
2018-01-06T22:40:35.378Z,5.67
2018-01-06T22:43:02.100Z,5.83
2018-01-06T22:45:28.738Z,5.63
2018-01-06T22:47:55.402Z,5.68
2018-01-06T22:50:22.617Z,5.69
2018-01-06T22:52:49.374Z,5.61
2018-01-06T22:55:16.058Z,5.67
2018-01-06T22:57:42.775Z,5.17
2018-01-06T23:00:10.220Z,5.07
2018-01-06T23:02:36.932Z,5.22
2018-01-06T23:05:04.421Z,5.19
2018-01-06T23:07:31.099Z,5.11
2018-01-06T23:09:57.808Z,4.92
2018-01-06T23:12:24.492Z,5.03
2018-01-06T23:14:51.161Z,5.03
2018-01-06T23:17:17.849Z,4.80
2018-01-06T23:19:44.526Z,4.95
2018-01-06T23:22:11.181Z,5.01
2018-01-06T23:24:37.914Z,4.87
2018-01-06T23:27:05.393Z,4.91
2018-01-06T23:29:32.791Z,4.72
2018-01-06T23:31:59.529Z,4.83
2018-01-06T23:34:26.236Z,4.69
2018-01-06T23:36:52.921Z,4.68
2018-01-06T23:39:19.592Z,4.73
2018-01-06T23:41:46.287Z,4.67
2018-01-06T23:44:13.750Z,4.52
2018-01-06T23:46:40.505Z,4.55
2018-01-06T23:49:07.188Z,4.63
2018-01-06T23:51:33.878Z,4.67
2018-01-06T23:54:01.292Z,4.59
2018-01-06T23:56:28.003Z,4.61
2018-01-06T23:58:54.653Z,4.51
